createdAt,value
2022-09-20T00:02:10.462Z,1010.62
2022-09-20T00:05:10.568Z,1010.63
2022-09-20T00:08:10.453Z,1010.67
2022-09-20T00:11:10.448Z,1010.73
2022-09-20T00:14:10.467Z,1010.75
2022-09-20T00:17:10.452Z,1010.73
2022-09-20T00:20:10.455Z,1010.74
2022-09-20T00:23:10.447Z,1010.71
2022-09-20T00:26:10.450Z,1010.72
2022-09-20T00:29:10.446Z,1010.73
2022-09-20T00:32:10.509Z,1010.76
2022-09-20T00:35:10.452Z,1010.75
2022-09-20T00:38:10.449Z,1010.73
2022-09-20T00:41:10.464Z,1010.69
2022-09-20T00:44:10.471Z,1010.67
2022-09-20T00:47:10.460Z,1010.68
2022-09-20T00:50:10.456Z,1010.67
2022-09-20T00:53:10.457Z,1010.73
2022-09-20T00:56:10.455Z,1010.73
2022-09-20T00:59:10.463Z,1010.7
2022-09-20T01:02:10.509Z,1010.65
2022-09-20T01:05:10.482Z,1010.72
2022-09-20T01:08:10.462Z,1010.71
2022-09-20T01:11:10.461Z,1010.73
2022-09-20T01:14:10.461Z,1010.72
2022-09-20T01:17:10.463Z,1010.67
2022-09-20T01:20:10.464Z,1010.69
2022-09-20T01:23:10.454Z,1010.7
2022-09-20T01:26:10.462Z,1010.74
2022-09-20T01:29:10.461Z,1010.79
2022-09-20T01:32:10.540Z,1010.79
2022-09-20T01:35:10.467Z,1010.73
2022-09-20T01:38:10.457Z,1010.78
2022-09-20T01:41:10.477Z,1010.75
2022-09-20T01:44:10.463Z,1010.77
2022-09-20T01:47:10.471Z,1010.77
2022-09-20T01:50:10.464Z,1010.78
2022-09-20T01:53:10.467Z,1010.74
2022-09-20T01:56:10.466Z,1010.77
2022-09-20T01:59:23.486Z,1010.75
2022-09-20T02:02:10.559Z,1010.73
2022-09-20T02:05:10.473Z,1010.71
2022-09-20T02:08:10.469Z,1010.72
2022-09-20T02:11:10.479Z,1010.63
2022-09-20T02:14:10.470Z,1010.65
2022-09-20T02:17:10.467Z,1010.64
2022-09-20T02:20:10.466Z,1010.67
2022-09-20T02:23:10.583Z,1010.63
2022-09-20T02:26:10.472Z,1010.61
2022-09-20T02:29:10.484Z,1010.63
2022-09-20T02:32:10.473Z,1010.62
2022-09-20T02:35:10.470Z,1010.65
2022-09-20T02:38:10.462Z,1010.65
2022-09-20T02:41:10.470Z,1010.63
2022-09-20T02:44:10.493Z,1010.64
2022-09-20T02:47:10.463Z,1010.72
2022-09-20T02:50:10.468Z,1010.74
2022-09-20T02:53:10.480Z,1010.78
2022-09-20T02:56:10.476Z,1010.78
2022-09-20T02:59:10.471Z,1010.73
2022-09-20T03:02:10.511Z,1010.75
2022-09-20T03:05:10.470Z,1010.77
2022-09-20T03:08:10.467Z,1010.79
2022-09-20T03:11:10.472Z,1010.82
2022-09-20T03:14:10.536Z,1010.8
2022-09-20T03:17:10.581Z,1010.78
2022-09-20T03:20:10.471Z,1010.76
2022-09-20T03:23:10.482Z,1010.71
2022-09-20T03:26:10.468Z,1010.79
2022-09-20T03:29:10.487Z,1010.77
2022-09-20T03:32:10.523Z,1010.78
2022-09-20T03:35:10.471Z,1010.88
2022-09-20T03:38:10.484Z,1010.87
2022-09-20T03:41:10.479Z,1010.85
2022-09-20T03:44:10.474Z,1010.84
2022-09-20T03:47:10.471Z,1010.88
2022-09-20T03:50:10.538Z,1010.89
2022-09-20T03:53:10.490Z,1010.88
2022-09-20T03:56:10.515Z,1010.9
2022-09-20T03:59:10.489Z,1010.93
2022-09-20T04:02:10.584Z,1010.94
2022-09-20T04:05:10.485Z,1010.98
2022-09-20T04:08:10.495Z,1011
2022-09-20T04:11:10.492Z,1011.03
2022-09-20T04:14:11.462Z,1010.96
2022-09-20T04:17:10.495Z,1010.93
2022-09-20T04:20:10.499Z,1010.98
2022-09-20T04:23:10.499Z,1010.97
2022-09-20T04:26:10.505Z,1010.96
2022-09-20T04:29:10.500Z,1010.93
2022-09-20T04:32:10.519Z,1011
2022-09-20T04:35:10.490Z,1010.9
2022-09-20T04:38:10.495Z,1010.91
2022-09-20T04:41:10.499Z,1010.87
2022-09-20T04:44:10.495Z,1010.91
2022-09-20T04:47:10.493Z,1010.9
2022-09-20T04:50:10.493Z,1010.88
2022-09-20T04:53:10.494Z,1010.96
2022-09-20T04:56:10.501Z,1011.02
2022-09-20T04:59:10.497Z,1011.07
2022-09-20T05:02:10.536Z,1011.12
2022-09-20T05:05:10.515Z,1011.17
2022-09-20T05:08:10.495Z,1011.22
2022-09-20T05:11:10.496Z,1011.3
2022-09-20T05:14:10.502Z,1011.3
2022-09-20T05:17:10.564Z,1011.37
2022-09-20T05:20:10.509Z,1011.39
2022-09-20T05:23:10.502Z,1011.38
2022-09-20T05:26:10.494Z,1011.43
2022-09-20T05:29:10.507Z,1011.39
2022-09-20T05:32:10.594Z,1011.4
2022-09-20T05:35:10.507Z,1011.45
2022-09-20T05:38:10.508Z,1011.51
2022-09-20T05:41:10.505Z,1011.54
2022-09-20T05:44:10.501Z,1011.6
2022-09-20T05:47:10.506Z,1011.6
2022-09-20T05:50:10.501Z,1011.65
2022-09-20T05:53:10.489Z,1011.68
2022-09-20T05:56:10.499Z,1011.68
2022-09-20T05:59:11.378Z,1011.66
2022-09-20T06:02:10.600Z,1011.66
2022-09-20T06:05:10.513Z,1011.66
2022-09-20T06:08:10.507Z,1011.63
2022-09-20T06:11:10.499Z,1011.65
2022-09-20T06:14:10.510Z,1011.65
2022-09-20T06:17:10.515Z,1011.68
2022-09-20T06:20:10.506Z,1011.67
2022-09-20T06:23:10.506Z,1011.65
2022-09-20T06:26:10.502Z,1011.73
2022-09-20T06:29:10.571Z,1011.73
2022-09-20T06:32:10.504Z,1011.77
2022-09-20T06:35:10.511Z,1011.76
2022-09-20T06:38:10.508Z,1011.72
2022-09-20T06:41:10.510Z,1011.76
2022-09-20T06:44:10.513Z,1011.77
2022-09-20T06:47:10.565Z,1011.79
2022-09-20T06:50:10.524Z,1011.86
2022-09-20T06:53:10.517Z,1011.94
2022-09-20T06:56:10.520Z,1011.98
2022-09-20T06:59:10.524Z,1011.97
2022-09-20T07:02:10.552Z,1012
2022-09-20T07:05:10.536Z,1011.98
2022-09-20T07:08:10.510Z,1012.01
2022-09-20T07:11:10.525Z,1011.99
2022-09-20T07:14:10.531Z,1012.02
2022-09-20T07:17:10.529Z,1012.03
2022-09-20T07:20:10.517Z,1012.07
2022-09-20T07:23:10.525Z,1012.04
2022-09-20T07:26:10.526Z,1012.07
2022-09-20T07:29:10.517Z,1012.09
2022-09-20T07:32:10.520Z,1012.1
2022-09-20T07:35:10.529Z,1012.09
2022-09-20T07:38:10.534Z,1012.07
2022-09-20T07:41:10.517Z,1012.05
2022-09-20T07:44:10.518Z,1012.09
2022-09-20T07:47:10.511Z,1012.09
2022-09-20T07:50:10.519Z,1012.12
2022-09-20T07:53:10.516Z,1012.13
2022-09-20T07:56:10.512Z,1012.16
2022-09-20T07:59:10.521Z,1012.19
2022-09-20T08:02:10.567Z,1012.21
2022-09-20T08:05:10.521Z,1012.25
2022-09-20T08:08:10.529Z,1012.25
2022-09-20T08:11:10.519Z,1012.25
2022-09-20T08:14:10.539Z,1012.28
2022-09-20T08:17:10.531Z,1012.26
2022-09-20T08:20:10.545Z,1012.29
2022-09-20T08:23:22.823Z,1012.28
2022-09-20T08:26:10.529Z,1012.27
2022-09-20T08:29:10.523Z,1012.28
2022-09-20T08:32:10.530Z,1012.32
2022-09-20T08:35:10.531Z,1012.3
2022-09-20T08:41:10.532Z,1012.27
2022-09-20T08:44:10.540Z,1012.3
2022-09-20T08:47:10.537Z,1012.35
2022-09-20T08:50:12.323Z,1012.32
2022-09-20T08:53:10.531Z,1012.34
2022-09-20T08:56:10.541Z,1012.33
2022-09-20T08:59:10.518Z,1012.33
2022-09-20T09:02:10.569Z,1012.35
2022-09-20T09:05:10.524Z,1012.33
2022-09-20T09:08:10.535Z,1012.42
2022-09-20T09:11:10.524Z,1012.37
2022-09-20T09:14:10.529Z,1012.39
2022-09-20T09:17:10.559Z,1012.37
2022-09-20T09:20:10.523Z,1012.34
2022-09-20T09:23:10.535Z,1012.3
2022-09-20T09:26:10.517Z,1012.27
2022-09-20T09:29:10.526Z,1012.27
2022-09-20T09:32:10.610Z,1012.29
2022-09-20T09:35:10.519Z,1012.24
2022-09-20T09:38:10.535Z,1012.22
2022-09-20T09:41:10.537Z,1012.17
2022-09-20T09:44:10.534Z,1012.21
2022-09-20T09:47:10.533Z,1012.17
2022-09-20T09:50:10.518Z,1012.2
2022-09-20T09:53:10.532Z,1012.24
2022-09-20T09:56:13.977Z,1012.2
2022-09-20T09:59:10.535Z,1012.19
2022-09-20T10:02:10.573Z,1012.18
2022-09-20T10:05:10.530Z,1012.12
2022-09-20T10:08:10.541Z,1012.08
2022-09-20T10:11:10.527Z,1012.08
2022-09-20T10:14:10.575Z,1012.03
2022-09-20T10:17:10.544Z,1012.05
2022-09-20T10:20:10.535Z,1012.02
2022-09-20T10:23:45.371Z,1012.03
2022-09-20T10:26:10.534Z,1011.97
2022-09-20T10:29:10.533Z,1011.93
2022-09-20T10:32:12.856Z,1011.92
2022-09-20T10:35:10.543Z,1011.94
2022-09-20T10:38:10.526Z,1011.95
2022-09-20T10:41:10.528Z,1011.86
2022-09-20T10:44:10.531Z,1011.81
2022-09-20T10:47:10.593Z,1011.81
2022-09-20T10:50:10.524Z,1011.78
2022-09-20T10:53:10.522Z,1011.75
2022-09-20T10:56:10.531Z,1011.76
2022-09-20T10:59:10.532Z,1011.81
2022-09-20T11:02:10.599Z,1011.83
2022-09-20T11:05:10.534Z,1011.85
2022-09-20T11:08:10.533Z,1011.83
2022-09-20T11:11:10.544Z,1011.84
2022-09-20T11:14:10.534Z,1011.89
2022-09-20T11:17:10.531Z,1011.83
2022-09-20T11:20:10.563Z,1011.8
2022-09-20T11:23:10.532Z,1011.84
2022-09-20T11:26:10.537Z,1011.85
2022-09-20T11:29:10.543Z,1011.9
2022-09-20T11:32:13.440Z,1011.91
2022-09-20T11:35:10.547Z,1011.98
2022-09-20T11:38:10.552Z,1011.99
2022-09-20T11:41:10.557Z,1012.07
2022-09-20T11:44:10.544Z,1012.05
2022-09-20T11:47:10.544Z,1012.01
2022-09-20T11:50:10.554Z,1012.06
2022-09-20T11:53:10.548Z,1012.12
2022-09-20T11:56:10.544Z,1012.07
2022-09-20T11:59:10.552Z,1012.02
2022-09-20T12:02:10.644Z,1011.98
2022-09-20T12:05:10.556Z,1011.96
2022-09-20T12:08:10.590Z,1011.97
2022-09-20T12:11:10.594Z,1011.94
2022-09-20T12:14:10.580Z,1011.93
2022-09-20T12:17:10.574Z,1011.96
2022-09-20T12:20:10.579Z,1011.98
2022-09-20T12:23:10.579Z,1011.96
2022-09-20T12:26:10.574Z,1011.98
2022-09-20T12:29:10.584Z,1011.96
2022-09-20T12:32:10.580Z,1011.99
2022-09-20T12:35:10.586Z,1012.04
2022-09-20T12:38:10.580Z,1012.07
2022-09-20T12:41:10.586Z,1012.12
2022-09-20T12:44:10.583Z,1012.22
2022-09-20T12:47:10.581Z,1012.26
2022-09-20T12:50:10.574Z,1012.24
2022-09-20T12:53:10.574Z,1012.24
2022-09-20T12:56:10.575Z,1012.2
2022-09-20T12:59:10.592Z,1012.06
2022-09-20T13:02:10.618Z,1012
2022-09-20T13:05:10.589Z,1012.02
2022-09-20T13:08:10.584Z,1012.03
2022-09-20T13:11:10.582Z,1012.02
2022-09-20T13:14:10.585Z,1011.98
2022-09-20T13:17:10.612Z,1011.97
2022-09-20T13:20:10.588Z,1012.02
2022-09-20T13:23:10.587Z,1011.99
2022-09-20T13:26:10.578Z,1011.93
2022-09-20T13:29:10.590Z,1011.94
2022-09-20T13:32:10.584Z,1011.96
2022-09-20T13:35:10.599Z,1011.96
2022-09-20T13:38:10.586Z,1011.97
2022-09-20T13:41:10.596Z,1011.93
2022-09-20T13:44:10.587Z,1011.94
2022-09-20T13:47:10.593Z,1011.96
2022-09-20T13:50:10.590Z,1011.94
2022-09-20T13:53:10.597Z,1011.91
2022-09-20T13:56:10.594Z,1011.92
2022-09-20T13:59:10.615Z,1011.94
2022-09-20T14:02:10.652Z,1011.93
2022-09-20T14:05:10.592Z,1011.91
2022-09-20T14:08:10.601Z,1011.87
2022-09-20T14:11:10.605Z,1011.83
2022-09-20T14:14:10.601Z,1011.88
2022-09-20T14:17:10.631Z,1011.79
2022-09-20T14:20:10.595Z,1011.79
2022-09-20T14:23:10.594Z,1011.77
2022-09-20T14:26:10.600Z,1011.73
2022-09-20T14:29:10.595Z,1011.73
2022-09-20T14:32:10.596Z,1011.72
2022-09-20T14:35:10.603Z,1011.68
2022-09-20T14:38:10.596Z,1011.66
2022-09-20T14:41:10.603Z,1011.69
2022-09-20T14:44:10.604Z,1011.68
2022-09-20T14:47:10.602Z,1011.69
2022-09-20T14:50:10.606Z,1011.69
2022-09-20T14:53:10.604Z,1011.69
2022-09-20T14:56:10.598Z,1011.72
2022-09-20T14:59:10.596Z,1011.72
2022-09-20T15:02:10.674Z,1011.72
2022-09-20T15:05:10.610Z,1011.66
2022-09-20T15:08:10.600Z,1011.69
2022-09-20T15:11:10.602Z,1011.66
2022-09-20T15:14:10.607Z,1011.66
2022-09-20T15:17:10.603Z,1011.64
2022-09-20T15:20:10.598Z,1011.61
2022-09-20T15:23:10.599Z,1011.64
2022-09-20T15:26:10.618Z,1011.64
2022-09-20T15:29:10.606Z,1011.65
2022-09-20T15:32:10.608Z,1011.62
2022-09-20T15:35:10.608Z,1011.65
2022-09-20T15:38:10.625Z,1011.64
2022-09-20T15:41:10.602Z,1011.61
2022-09-20T15:44:10.605Z,1011.66
2022-09-20T15:47:14.078Z,1011.66
2022-09-20T15:50:10.682Z,1011.69
2022-09-20T15:53:10.607Z,1011.7
2022-09-20T15:56:10.602Z,1011.64
2022-09-20T15:59:10.604Z,1011.65
2022-09-20T16:02:10.642Z,1011.68
2022-09-20T16:05:10.662Z,1011.73
2022-09-20T16:08:10.642Z,1011.72
2022-09-20T16:11:10.647Z,1011.74
2022-09-20T16:17:10.642Z,1011.84
2022-09-20T16:20:10.638Z,1011.86
2022-09-20T16:23:10.642Z,1011.87
2022-09-20T16:26:10.630Z,1011.86
2022-09-20T16:29:10.640Z,1011.95
2022-09-20T16:32:10.639Z,1011.97
2022-09-20T16:35:10.635Z,1011.96
2022-09-20T16:38:10.639Z,1011.96
2022-09-20T16:41:10.639Z,1011.98
2022-09-20T16:44:10.634Z,1011.99
2022-09-20T16:47:10.646Z,1012.02
2022-09-20T16:50:10.634Z,1012.04
2022-09-20T16:53:10.647Z,1012.1
2022-09-20T16:56:10.647Z,1012.15
2022-09-20T16:59:10.660Z,1012.16
2022-09-20T17:02:10.644Z,1012.17
2022-09-20T17:05:10.657Z,1012.2
2022-09-20T17:08:10.641Z,1012.23
2022-09-20T17:11:10.648Z,1012.26
2022-09-20T17:14:10.664Z,1012.29
2022-09-20T17:17:10.653Z,1012.31
2022-09-20T17:20:10.651Z,1012.34
2022-09-20T17:23:10.652Z,1012.35
2022-09-20T17:26:10.709Z,1012.36
2022-09-20T17:29:10.658Z,1012.38
2022-09-20T17:32:10.699Z,1012.43
2022-09-20T17:35:10.652Z,1012.47
2022-09-20T17:38:10.655Z,1012.5
2022-09-20T17:41:10.660Z,1012.53
2022-09-20T17:44:10.651Z,1012.55
2022-09-20T17:47:10.682Z,1012.62
2022-09-20T17:50:10.658Z,1012.62
2022-09-20T17:53:10.651Z,1012.68
2022-09-20T17:56:10.642Z,1012.68
2022-09-20T17:59:10.655Z,1012.7
2022-09-20T18:02:10.663Z,1012.71
2022-09-20T18:05:10.664Z,1012.74
2022-09-20T18:08:10.650Z,1012.78
2022-09-20T18:11:10.658Z,1012.83
2022-09-20T18:14:10.657Z,1012.9
2022-09-20T18:17:10.655Z,1012.9
2022-09-20T18:20:10.659Z,1012.91
2022-09-20T18:23:10.675Z,1012.96
2022-09-20T18:26:10.663Z,1013.04
2022-09-20T18:29:10.655Z,1013.01
2022-09-20T18:32:10.652Z,1013.07
2022-09-20T18:35:10.656Z,1013.13
2022-09-20T18:38:10.651Z,1013.18
2022-09-20T18:41:10.663Z,1013.2
2022-09-20T18:44:10.664Z,1013.21
2022-09-20T18:47:10.664Z,1013.26
2022-09-20T18:50:10.660Z,1013.28
2022-09-20T18:53:10.661Z,1013.28
2022-09-20T18:56:10.662Z,1013.31
2022-09-20T18:59:10.649Z,1013.32
2022-09-20T19:02:10.661Z,1013.4
2022-09-20T19:05:10.661Z,1013.42
2022-09-20T19:08:10.664Z,1013.46
2022-09-20T19:11:10.660Z,1013.41
2022-09-20T19:14:10.665Z,1013.43
2022-09-20T19:17:10.665Z,1013.48
2022-09-20T19:20:10.657Z,1013.56
2022-09-20T19:23:10.656Z,1013.65
2022-09-20T19:26:10.649Z,1013.67
2022-09-20T19:29:10.653Z,1013.7
2022-09-20T19:32:10.664Z,1013.71
2022-09-20T19:35:10.650Z,1013.78
2022-09-20T19:38:10.659Z,1013.76
2022-09-20T19:41:10.670Z,1013.83
2022-09-20T19:44:10.665Z,1013.79
2022-09-20T19:47:10.661Z,1013.79
2022-09-20T19:50:10.657Z,1013.83
2022-09-20T19:53:10.667Z,1013.88
2022-09-20T19:56:10.672Z,1013.9
2022-09-20T19:59:10.666Z,1013.9
2022-09-20T20:02:10.678Z,1013.87
2022-09-20T20:05:10.663Z,1013.9
2022-09-20T20:08:10.660Z,1013.94
2022-09-20T20:11:10.670Z,1013.94
2022-09-20T20:14:10.660Z,1013.98
2022-09-20T20:17:10.678Z,1014
2022-09-20T20:20:10.661Z,1014.02
2022-09-20T20:23:10.671Z,1014.07
2022-09-20T20:26:10.675Z,1014.07
2022-09-20T20:29:10.677Z,1014.12
2022-09-20T20:32:10.687Z,1014.13
2022-09-20T20:35:10.672Z,1014.14
2022-09-20T20:38:10.690Z,1014.13
2022-09-20T20:41:10.671Z,1014.19
2022-09-20T20:44:10.678Z,1014.18
2022-09-20T20:47:10.668Z,1014.19
2022-09-20T20:50:10.680Z,1014.23
2022-09-20T20:53:10.673Z,1014.25
2022-09-20T20:56:10.663Z,1014.25
2022-09-20T20:59:10.664Z,1014.26
2022-09-20T21:02:10.713Z,1014.27
2022-09-20T21:05:10.675Z,1014.31
2022-09-20T21:08:10.680Z,1014.35
2022-09-20T21:11:10.666Z,1014.3
2022-09-20T21:14:10.675Z,1014.35
2022-09-20T21:17:10.675Z,1014.37
2022-09-20T21:20:10.667Z,1014.34
2022-09-20T21:23:10.672Z,1014.35
2022-09-20T21:26:10.675Z,1014.35
2022-09-20T21:29:10.682Z,1014.32
2022-09-20T21:32:10.726Z,1014.36
2022-09-20T21:35:10.683Z,1014.36
2022-09-20T21:38:10.673Z,1014.38
2022-09-20T21:41:10.687Z,1014.38
2022-09-20T21:44:10.686Z,1014.4
2022-09-20T21:47:10.687Z,1014.4
2022-09-20T21:50:10.690Z,1014.42
2022-09-20T21:53:10.676Z,1014.4
2022-09-20T21:56:10.692Z,1014.42
2022-09-20T21:59:10.679Z,1014.47
2022-09-20T22:02:10.694Z,1014.44
2022-09-20T22:05:10.683Z,1014.5
2022-09-20T22:08:10.695Z,1014.5
2022-09-20T22:11:14.614Z,1014.54
2022-09-20T22:14:10.692Z,1014.54
2022-09-20T22:17:10.686Z,1014.56
2022-09-20T22:20:10.680Z,1014.58
2022-09-20T22:23:10.691Z,1014.54
2022-09-20T22:26:10.680Z,1014.56
2022-09-20T22:29:10.695Z,1014.56
2022-09-20T22:32:10.691Z,1014.57
2022-09-20T22:35:10.685Z,1014.55
2022-09-20T22:38:10.693Z,1014.53
2022-09-20T22:41:10.690Z,1014.5
2022-09-20T22:44:10.684Z,1014.55
2022-09-20T22:47:10.694Z,1014.55
2022-09-20T22:50:10.695Z,1014.58
2022-09-20T22:53:10.689Z,1014.62
2022-09-20T22:56:10.698Z,1014.63
2022-09-20T22:59:10.695Z,1014.63
2022-09-20T23:02:10.692Z,1014.66
2022-09-20T23:05:10.699Z,1014.66
2022-09-20T23:08:10.691Z,1014.67
2022-09-20T23:11:10.775Z,1014.71
2022-09-20T23:14:10.698Z,1014.72
2022-09-20T23:17:10.700Z,1014.73
2022-09-20T23:20:10.704Z,1014.74
2022-09-20T23:23:10.687Z,1014.73
2022-09-20T23:26:10.697Z,1014.71
2022-09-20T23:29:10.706Z,1014.72
2022-09-20T23:32:10.696Z,1014.7
2022-09-20T23:35:10.695Z,1014.72
2022-09-20T23:38:10.704Z,1014.73
2022-09-20T23:41:10.699Z,1014.72
2022-09-20T23:44:10.701Z,1014.74
2022-09-20T23:47:10.698Z,1014.73
2022-09-20T23:50:10.701Z,1014.72
2022-09-20T23:53:10.705Z,1014.74
2022-09-20T23:56:10.694Z,1014.77
2022-09-20T23:59:10.716Z,1014.72
